METAR Analyzer

一覧表示

Hello, Guest. (Login)

CYYZ/YYZ  -  トロント・ピアソン

観測日時
2020-10-25 13:00 (UTC) (45分前)
気温
3
露点
-2
湿数
5
相対湿度
69.6%
QNH
1026.1hPa
推定現地気圧
1005.3hPa
推定海面気圧
1027.0hPa
体感温度
-8.3
(無風時)
7.2
HI
1.2
気温前日比
-2
体感温度前日比
±0
HI前日比
-2.3
水平視程
>15SM
鉛直視程
データなし
雲底高度
16000ft AGL
V/I
VMC (VFR)
RVR
No RVR data
卓越風
8kt from 40°
ガスト
No gust
降水
報告なし
その他の天気
報告なし
少しの(1/8) 層積雲 @ 2500ft AGL / 隙間のある(5/8) 高積雲 @ 16000ft AGL / 隙間のある(2/8) 巻雲 @ 21000ft AGL

CYYZ 251300Z 04008KT 15SM FEW025 BKN160 BKN210 03/M02 A3030 RMK SC1AC5CI2 SC TR SLP270

CYOW/YOW  -  オタワ・マクドナルド・カルティエ

観測日時
2020-10-25 13:00 (UTC) (45分前)
気温
1
露点
-5
湿数
6
相対湿度
64.2%
QNH
1028.1hPa
推定現地気圧
1014.2hPa
推定海面気圧
1028.8hPa
体感温度
-10.3
(無風時)
5.8
HI
-1.2
気温前日比
-4
体感温度前日比
-1
HI前日比
-4.7
水平視程
>15SM
鉛直視程
データなし
雲底高度
23000ft AGL
V/I
VMC (VFR)
RVR
No RVR data
卓越風
8kt from 20°
ガスト
No gust
降水
報告なし
その他の天気
報告なし
隙間のある(5/8) 巻積雲 @ 23000ft AGL

CYOW 251300Z 02008KT 15SM BKN230 01/M05 A3036 RMK CC5 SLP289

CYUL/YUL  -  モントリオール・ピエール・エリオット・トルドー

観測日時
2020-10-25 13:00 (UTC) (45分前)
気温
2
露点
-5
湿数
7
相対湿度
59.7%
QNH
1028.1hPa
推定現地気圧
1023.7hPa
推定海面気圧
1028.3hPa
体感温度
-9.4
(無風時)
6.7
HI
-0.2
気温前日比
-5
体感温度前日比
-3.1
HI前日比
-5.9
水平視程
>30SM
鉛直視程
データなし
雲底高度
25000ft AGL
V/I
VMC (VFR)
RVR
No RVR data
卓越風
9kt from 360°
ガスト
No gust
降水
報告なし
その他の天気
報告なし
少しの(1/8) 層積雲 @ 4000ft AGL / 少しの(1/8) 巻積雲 @ 21000ft AGL / 隙間のある(5/8) 巻雲 @ 25000ft AGL

CYUL 251300Z 36009KT 30SM FEW040 FEW210 BKN250 02/M05 A3036 RMK SC1CC1CI5 SC TR SLP284

CYVR/YVR  -  バンクーバー

観測日時
2020-10-25 13:00 (UTC) (45分前)
気温
-1
露点
-7
湿数
6
相対湿度
63.7%
QNH
1035.6hPa
推定現地気圧
1035.1hPa
推定海面気圧
1035.6hPa
体感温度
4.3
(無風時)
4.3
HI
-3.4
気温前日比
-3
体感温度前日比
+8.8
HI前日比
-3.6
水平視程
>20SM
鉛直視程
データなし
雲底高度
データなし
V/I
判定不可
RVR
No RVR data
卓越風
静穏
ガスト
No gust
降水
報告なし
その他の天気
快晴
報告なし

CYVR 251300Z 00000KT 20SM SKC M01/M07 A3058 RMK SLP358

KJFK/JFK  -  ジョン・F・ケネディ

観測日時
2020-10-25 12:51 (UTC) (54分前)
気温
7.8
露点
1.7
湿数
6.1
相対湿度
65.3%
QNH
1024.7hPa
推定現地気圧
1024.2hPa
推定海面気圧
1024.7hPa
体感温度
-0.9
(無風時)
11
HI
6.3
気温前日比
-10
体感温度前日比
-10.2
HI前日比
-11.5
水平視程
>10SM
鉛直視程
データなし
雲底高度
21000ft AGL
V/I
VMC (VFR)
RVR
No RVR data
卓越風
6kt from 20°
ガスト
No gust
降水
報告なし
その他の天気
報告なし
少しの雲 @ 4000ft AGL / 散在する雲 @ 7000ft AGL / 隙間のある雲 @ 21000ft AGL

KJFK 251251Z 02006KT 10SM FEW040 SCT070 BKN210 08/02 A3026 RMK AO2 SLP245 T00780017 $

KLGA/LGA  -  ラガーディア

観測日時
2020-10-25 12:51 (UTC) (54分前)
気温
8.3
露点
0
湿数
8.3
相対湿度
55.8%
QNH
1024.4hPa
推定現地気圧
1023.7hPa
推定海面気圧
1024.4hPa
体感温度
-0.6
(無風時)
11.4
HI
6.6
気温前日比
-10
体感温度前日比
-11.9
HI前日比
-11.6
水平視程
>10SM
鉛直視程
データなし
雲底高度
21000ft AGL
V/I
VMC (VFR)
RVR
No RVR data
卓越風
7kt from 10°
ガスト
No gust
降水
報告なし
その他の天気
報告なし
少しの雲 @ 3300ft AGL / 散在する雲 @ 6000ft AGL / 散在する雲 @ 9000ft AGL / 隙間のある雲 @ 21000ft AGL / 隙間のある雲 @ 25000ft AGL

KLGA 251251Z 01007KT 10SM FEW033 SCT060 SCT090 BKN210 BKN250 08/00 A3025 RMK AO2 SLP242 T00830000

KEWR/EWR  -  ニューアーク・リバティー

観測日時
2020-10-25 12:51 (UTC) (54分前)
気温
7.8
露点
1.1
湿数
6.7
相対湿度
62.5%
QNH
1024.7hPa
推定現地気圧
1024.1hPa
推定海面気圧
1024.7hPa
体感温度
-2
(無風時)
11
HI
6.3
気温前日比
-10
体感温度前日比
-12.5
HI前日比
-11.5
水平視程
>10SM
鉛直視程
データなし
雲底高度
23000ft AGL
V/I
VMC (VFR)
RVR
No RVR data
卓越風
8kt from 20°
ガスト
No gust
降水
報告なし
その他の天気
報告なし
少しの雲 @ 7000ft AGL / 散在する雲 @ 12000ft AGL / 隙間のある雲 @ 23000ft AGL

KEWR 251251Z 02008KT 10SM FEW070 SCT120 BKN230 08/01 A3026 RMK AO2 SLP245 T00780011 $

KIAD/IAD  -  ワシントン・ダレス

観測日時
2020-10-25 12:52 (UTC) (53分前)
気温
7.8
露点
5.6
湿数
2.2
相対湿度
86%
QNH
1023.0hPa
推定現地気圧
1011.5hPa
推定海面気圧
1023.2hPa
体感温度
-0.9
(無風時)
10.8
HI
6.9
気温前日比
-8.3
体感温度前日比
-18.9
HI前日比
-9.3
水平視程
3SM
鉛直視程
データなし
雲底高度
3800ft AGL
V/I
SVMC (SVFR)
RVR
No RVR data
卓越風
5kt from 40°
ガスト
No gust
降水
弱い雨 (降水強度: 0.5mm/h)
その他の天気
もや
少しの雲 @ 1200ft AGL / 全天を覆う雲 @ 3800ft AGL

KIAD 251252Z 04005KT 3SM -RA BR FEW012 OVC038 08/06 A3021 RMK AO2 SLP232 P0002 T00780056

KDTW/DTW  -  デトロイト・メトロポリタン・ウェイン・カウンティ

観測日時
2020-10-25 12:53 (UTC) (52分前)
気温
3.3
露点
-0.6
湿数
3.9
相対湿度
75.5%
QNH
1024.4hPa
推定現地気圧
1000.7hPa
推定海面気圧
1025.3hPa
体感温度
-8.4
(無風時)
7.3
HI
1.7
気温前日比
-0.6
体感温度前日比
+0.2
HI前日比
-0.4
水平視程
9SM
鉛直視程
データなし
雲底高度
4500ft AGL
V/I
VMC (VFR)
RVR
No RVR data
卓越風
8kt from 20°
ガスト
No gust
降水
報告なし
その他の天気
報告なし
隙間のある雲 @ 4500ft AGL / 隙間のある雲 @ 9500ft AGL / 全天を覆う雲 @ 22000ft AGL

KDTW 251253Z 02008KT 9SM BKN045 BKN095 OVC220 03/M01 A3025 RMK AO2 SLP247 T00331006

KDET/DET  -  コールマン・A・ヤング

観測日時
2020-10-25 12:53 (UTC) (52分前)
気温
3.9
露点
-0.6
湿数
4.5
相対湿度
72.4%
QNH
1024.7hPa
推定現地気圧
1001.7hPa
推定海面気圧
1025.5hPa
体感温度
-4.9
(無風時)
7.8
HI
2.2
気温前日比
-0.5
体感温度前日比
+1
HI前日比
-0.5
水平視程
>10SM
鉛直視程
データなし
雲底高度
4600ft AGL
V/I
VMC (VFR)
RVR
No RVR data
卓越風
5kt from 360°
ガスト
No gust
降水
報告なし
その他の天気
報告なし
隙間のある雲 @ 4600ft AGL / 全天を覆う雲 @ 10000ft AGL

KDET 251253Z 36005KT 10SM BKN046 OVC100 04/M01 A3026 RMK AO2 SLP250 T00391006

KMCO/MCO  -  オーランド

観測日時
2020-10-25 12:53 (UTC) (52分前)
気温
23.9
露点
23.3
湿数
0.6
相対湿度
96.5%
QNH
1012.9hPa
推定現地気圧
1009.4hPa
推定海面気圧
1012.8hPa
体感温度
25
(無風時)
25
HI
24.9
気温前日比
+0.6
体感温度前日比
+5.2
HI前日比
+0.8
水平視程
>10SM
鉛直視程
データなし
雲底高度
No dense clouds
V/I
VMC (VFR)
RVR
No RVR data
卓越風
静穏
ガスト
No gust
降水
報告なし
その他の天気
報告なし
少しの雲 @ 2500ft AGL / 少しの雲 @ 5500ft AGL

KMCO 251253Z 00000KT 10SM FEW025 FEW055 24/23 A2991 RMK AO2 SLP127 T02390233

KMIA/MIA  -  マイアミ

観測日時
2020-10-25 13:20 (UTC) (25分前)
気温
25.6
露点
25
湿数
0.6
相対湿度
96.5%
QNH
1012.9hPa
推定現地気圧
1012.5hPa
推定海面気圧
1012.8hPa
体感温度
22.8
(無風時)
26.5
HI
26.7
気温前日比
データなし
体感温度前日比
データなし
HI前日比
データなし
水平視程
7SM
鉛直視程
データなし
雲底高度
1000ft AGL
V/I
VMC (VFR)
RVR
No RVR data
卓越風
3kt from VRB
ガスト
15kt
降水
弱い雨 (降水強度: 0.3mm/h)
その他の天気
報告なし
隙間のある雲 @ 1000ft AGL / 隙間のある雲 @ 1700ft AGL / 全天を覆う雲 @ 3700ft AGL

KMIA 251320Z VRB03G15KT 7SM -RA BKN010 BKN017 OVC037 26/25 A2991 RMK AO2 LTG DSNT SE P0001 T02560250 $

KFLL/FLL  -  フォートローダーデール・ハリウッド

観測日時
2020-10-25 13:03 (UTC) (42分前)
気温
25.6
露点
25.6
湿数
0
相対湿度
100%
QNH
1012.5hPa
推定現地気圧
1010.1hPa
推定海面気圧
1012.4hPa
体感温度
20.8
(無風時)
26.7
HI
26.8
気温前日比
-1.6
体感温度前日比
-0.7
HI前日比
-3.3
水平視程
>10SM
鉛直視程
データなし
雲底高度
4500ft AGL
V/I
VMC (VFR)
RVR
No RVR data
卓越風
9kt from 150°
ガスト
No gust
降水
報告なし
その他の天気
報告なし
少しの雲 @ 1500ft AGL / 隙間のある雲 @ 4500ft AGL / 隙間のある雲 @ 11000ft AGL / 隙間のある雲 @ 25000ft AGL

KFLL 251303Z 15009KT 10SM FEW015 BKN045 BKN110 BKN250 26/26 A2990 RMK AO2 RAE1256 P0000 T02560256 $

KTPA/TPA  -  タンパ

観測日時
2020-10-25 12:53 (UTC) (52分前)
気温
25.6
露点
21.1
湿数
4.5
相対湿度
76.2%
QNH
1012.9hPa
推定現地気圧
1011.9hPa
推定海面気圧
1012.8hPa
体感温度
21.2
(無風時)
25.2
HI
26.2
気温前日比
+0.6
体感温度前日比
+0.9
HI前日比
+0.8
水平視程
>10SM
鉛直視程
データなし
雲底高度
No dense clouds
V/I
VMC (VFR)
RVR
No RVR data
卓越風
4kt from 80°
ガスト
No gust
降水
報告なし
その他の天気
報告なし
少しの雲 @ 5500ft AGL

KTPA 251253Z 08004KT 10SM FEW055 26/21 A2991 RMK AO2 SLP129 T02560211

KORD/ORD  -  シカゴ・オヘア

観測日時
2020-10-25 13:05 (UTC) (40分前)
気温
3.9
露点
0.6
湿数
3.3
相対湿度
79%
QNH
1023.0hPa
推定現地気圧
998.2hPa
推定海面気圧
1023.9hPa
体感温度
-7.1
(無風時)
7.7
HI
2.4
気温前日比
データなし
体感温度前日比
データなし
HI前日比
データなし
水平視程
>10SM
鉛直視程
データなし
雲底高度
3200ft AGL
V/I
VMC (VFR)
RVR
No RVR data
卓越風
7kt from 350°
ガスト
No gust
降水
報告なし
その他の天気
報告なし
少しの雲 @ 2900ft AGL / 隙間のある雲 @ 3200ft AGL / 全天を覆う雲 @ 4200ft AGL

KORD 251305Z 35007KT 10SM FEW029 BKN032 OVC042 04/01 A3021 RMK AO2 T00390006

KMSP/MSP  -  ミネアポリス・セントポール

観測日時
2020-10-25 12:53 (UTC) (52分前)
気温
-3.3
露点
-7.2
湿数
3.9
相対湿度
74.4%
QNH
1028.1hPa
推定現地気圧
997.2hPa
推定海面気圧
1030.1hPa
体感温度
-14.7
(無風時)
2
HI
-5.6
気温前日比
+1.1
体感温度前日比
-1
HI前日比
+1.2
水平視程
>10SM
鉛直視程
データなし
雲底高度
9500ft AGL
V/I
VMC (VFR)
RVR
No RVR data
卓越風
6kt from VRB
ガスト
No gust
降水
報告なし
その他の天気
報告なし
散在する雲 @ 7500ft AGL / 全天を覆う雲 @ 9500ft AGL

KMSP 251253Z VRB06KT 10SM SCT075 OVC095 M03/M07 A3036 RMK AO2 SLP295 T10331072

KIAH/IAH  -  ヒューストン/ジョージ・ブッシュ・インターコンチネンタル

観測日時
2020-10-25 13:30 (UTC) (15分前)
気温
16.7
露点
15
湿数
1.7
相対湿度
89.7%
QNH
1015.6hPa
推定現地気圧
1012.1hPa
推定海面気圧
1015.6hPa
体感温度
11.9
(無風時)
18.4
HI
16.8
気温前日比
データなし
体感温度前日比
データなし
HI前日比
データなし
水平視程
6SM
鉛直視程
データなし
雲底高度
800ft AGL
V/I
SVMC (SVFR)
RVR
No RVR data
卓越風
3kt from 30°
ガスト
No gust
降水
報告なし
その他の天気
もや
全天を覆う雲 @ 800ft AGL

KIAH 251330Z 03003KT 6SM BR OVC008 17/15 A2999 RMK AO2 T01670150

KDFW/DFW  -  ダラス・フォートワース

観測日時
2020-10-25 12:53 (UTC) (52分前)
気温
11.7
露点
11.1
湿数
0.6
相対湿度
96.1%
QNH
1014.2hPa
推定現地気圧
992.1hPa
推定海面気圧
1014.3hPa
体感温度
2.2
(無風時)
14.1
HI
11.4
気温前日比
+3.4
体感温度前日比
+3.5
HI前日比
+4.3
水平視程
9SM
鉛直視程
データなし
雲底高度
900ft AGL
V/I
SVMC (SVFR)
RVR
No RVR data
卓越風
7kt from 130°
ガスト
No gust
降水
報告なし
その他の天気
報告なし
全天を覆う雲 @ 900ft AGL

KDFW 251253Z 13007KT 9SM OVC009 12/11 A2995 RMK AO2 SLP138 T01170111

KAUS/AUS  -  オースティン・バーグストロム

観測日時
2020-10-25 13:26 (UTC) (19分前)
気温
15
露点
11.1
湿数
3.9
相対湿度
77.5%
QNH
1014.6hPa
推定現地気圧
994.9hPa
推定海面気圧
1014.5hPa
体感温度
9.9
(無風時)
16.7
HI
14.6
気温前日比
データなし
体感温度前日比
データなし
HI前日比
データなし
水平視程
>10SM
鉛直視程
データなし
雲底高度
1400ft AGL
V/I
VMC (VFR)
RVR
No RVR data
卓越風
3kt from 160°
ガスト
No gust
降水
報告なし
その他の天気
報告なし
全天を覆う雲 @ 1400ft AGL

KAUS 251326Z 16003KT 10SM OVC014 15/11 A2996 RMK AO2 T01500111

KDEN/DEN  -  デンバー

観測日時
2020-10-25 12:53 (UTC) (52分前)
気温
-10
露点
-11.7
湿数
1.7
相対湿度
87.3%
QNH
1020.7hPa
推定現地気圧
835.9hPa
推定海面気圧
1031.7hPa
体感温度
-29.5
(無風時)
-4.4
HI
-12.7
気温前日比
-4.4
体感温度前日比
-29.1
HI前日比
-4.8
水平視程
1.75SM
鉛直視程
データなし
雲底高度
2300ft AGL
V/I
SVMC (SVFR)
RVR
No RVR data
卓越風
11kt from 350°
ガスト
No gust
降水
弱い雪 (降水強度: 0mm/h)
その他の天気
もや
散在する雲 @ 1200ft AGL / 全天を覆う雲 @ 2300ft AGL

KDEN 251253Z 35011KT 1 3/4SM -SN BR SCT012 OVC023 M10/M12 A3014 RMK AO2 SLP229 P0000 T11001117 $

KPHX/PHX  -  フェニックス・スカイハーバー

観測日時
2020-10-25 12:51 (UTC) (54分前)
気温
20.6
露点
6.7
湿数
13.9
相対湿度
40.4%
QNH
1008.5hPa
推定現地気圧
967.8hPa
推定海面気圧
1007.3hPa
体感温度
13.1
(無風時)
19.7
HI
19.8
気温前日比
-0.5
体感温度前日比
-1.8
HI前日比
-0.4
水平視程
>10SM
鉛直視程
データなし
雲底高度
18000ft AGL
V/I
VMC (VFR)
RVR
No RVR data
卓越風
7kt from 90°
ガスト
No gust
降水
報告なし
その他の天気
報告なし
隙間のある雲 @ 18000ft AGL / 隙間のある雲 @ 20000ft AGL

KPHX 251251Z 09007KT 10SM BKN180 BKN200 21/07 A2978 RMK AO2 SLP069 T02060067 $

KTUS/TUS  -  ツーソン

観測日時
2020-10-25 12:53 (UTC) (52分前)
気温
20
露点
2.8
湿数
17.2
相対湿度
31.9%
QNH
1012.5hPa
推定現地気圧
919.4hPa
推定海面気圧
1009.0hPa
体感温度
18.9
(無風時)
18.9
HI
18.9
気温前日比
+2.8
体感温度前日比
+9.4
HI前日比
+2.8
水平視程
>10SM
鉛直視程
データなし
雲底高度
No dense clouds
V/I
VMC (VFR)
RVR
No RVR data
卓越風
静穏
ガスト
No gust
降水
報告なし
その他の天気
報告なし
目立った雲なし

KTUS 251253Z 00000KT 10SM CLR 20/03 A2990 RMK AO2 SLP083 T02000028

KSFO/SFO  -  サンフランシスコ

観測日時
2020-10-25 12:56 (UTC) (49分前)
気温
15
露点
10.6
湿数
4.4
相対湿度
74.9%
QNH
1013.2hPa
推定現地気圧
1012.7hPa
推定海面気圧
1013.2hPa
体感温度
6.5
(無風時)
16.7
HI
14.5
気温前日比
+3.9
体感温度前日比
+1.2
HI前日比
+3.9
水平視程
>10SM
鉛直視程
データなし
雲底高度
1600ft AGL
V/I
VMC (VFR)
RVR
No RVR data
卓越風
8kt from 200°
ガスト
No gust
降水
報告なし
その他の天気
報告なし
少しの雲 @ 1200ft AGL / 隙間のある雲 @ 1600ft AGL / 隙間のある雲 @ 2200ft AGL

KSFO 251256Z 20008KT 10SM FEW012 BKN016 BKN022 15/11 A2992 RMK AO2 SLP130 T01500106

KLAX/LAX  -  ロサンゼルス

観測日時
2020-10-25 12:53 (UTC) (52分前)
気温
17.8
露点
12.2
湿数
5.6
相対湿度
69.7%
QNH
1013.2hPa
推定現地気圧
1008.5hPa
推定海面気圧
1013.1hPa
体感温度
9
(無風時)
18.7
HI
17.5
気温前日比
-0.5
体感温度前日比
-10.3
HI前日比
-0.7
水平視程
>10SM
鉛直視程
データなし
雲底高度
5500ft AGL
V/I
VMC (VFR)
RVR
No RVR data
卓越風
11kt from 270°
ガスト
No gust
降水
報告なし
その他の天気
報告なし
散在する雲 @ 2300ft AGL / 隙間のある雲 @ 5500ft AGL

KLAX 251253Z 27011KT 10SM SCT023 BKN055 18/12 A2992 RMK AO2 SLP130 T01780122

KSJC/SJC  -  サンノゼ

観測日時
2020-10-25 12:53 (UTC) (52分前)
気温
13.9
露点
10
湿数
3.9
相対湿度
77.3%
QNH
1013.2hPa
推定現地気圧
1010.9hPa
推定海面気圧
1013.2hPa
体感温度
8.7
(無風時)
15.8
HI
13.4
気温前日比
+2.2
体感温度前日比
-5.4
HI前日比
+2.2
水平視程
>10SM
鉛直視程
データなし
雲底高度
No dense clouds
V/I
VMC (VFR)
RVR
No RVR data
卓越風
3kt from 170°
ガスト
No gust
降水
報告なし
その他の天気
報告なし
少しの雲 @ 2300ft AGL

KSJC 251253Z 17003KT 10SM FEW023 14/10 A2992 RMK AO2 SLP129 T01390100 $

41.7msec